Latest Weather Observations for Moorabbin Airport

IDV60901

Issued at 3:31 pm EST Thursday 29 June 2017 (issued every 10 minutes, with the page automatically refreshed every 10 minutes)

About weather observations | Map of Melbourne area stations | Latest observations for Melbourne area | Other Formats
Station Details ID: 086077 Name: MOORABBIN AIRPORT Lat: -37.98 Lon: 145.10 Height: 12.1 m
Data from the previous 72 hours. | See also: Recent months at Moorabbin Airport
Date/Time
EST
Temp
°C
App
Temp
°C
Dew
Point
°C
Rel
Hum
%
Delta-T
°C
Wind Press
QNH
hPa
Press
MSL
hPa
Rain since
9am
mm
Dir  Spd
km/h
Gust
km/h
Spd
kts
Gust
kts
29/03:30pm 11.7 7.7 6.6 71 2.4 WNW 17 28 9 15 1021.0 1021.1 -
29/03:00pm 12.2 7.7 6.3 67 2.8 WNW 19 32 10 17 1020.9 1021.0 -
29/02:30pm 12.3 7.1 5.7 64 3.1 WNW 22 33 12 18 1020.6 1020.7 -
29/02:00pm 12.6 7.6 6.4 66 2.9 W 22 41 12 22 1020.5 1020.6 -
29/01:30pm 12.8 7.4 6.4 65 3.0 W 24 35 13 19 1020.7 1020.8 -
29/01:00pm 12.8 8.4 7.5 70 2.6 W 20 33 11 18 1021.0 1021.1 -
29/12:30pm 12.4 8.4 8.3 76 2.0 WNW 19 32 10 17 1021.3 1021.4 -
29/12:00pm 11.9 7.8 8.7 81 1.6 W 20 54 11 29 1021.8 1022.0 0.0
29/11:53am 11.9 7.8 8.7 81 1.6 W 20 30 11 16 1022.0 - 0.0
29/11:37am 11.6 7.5 8.6 82 1.5 WNW 20 30 11 16 1022.0 1022.1 0.0
29/11:30am 11.3 7.2 8.5 83 1.4 WNW 20 30 11 16 1022.1 1022.2 0.0
29/11:00am 10.6 7.2 7.8 83 1.3 WNW 15 24 8 13 1022.5 1022.6 0.0
29/10:54am 10.4 6.9 7.3 81 1.5 WNW 15 20 8 11 1022.5 1022.6 0.0
29/10:30am 10.7 6.8 7.2 79 1.7 WNW 17 24 9 13 1022.5 1022.6 0.0
29/10:00am 10.4 6.4 6.7 78 1.7 WNW 17 28 9 15 1022.4 1022.5 0.0
29/09:30am 10.9 6.5 6.6 75 2.0 WNW 19 26 10 14 1022.2 1022.3 0.0
29/09:00am 10.9 6.9 6.8 76 1.9 NW 17 24 9 13 1022.1 1022.2 0.0
29/08:30am 9.5 6.3 6.8 83 1.3 NNW 13 20 7 11 1021.8 1021.9 0.0
29/08:00am 8.3 5.6 5.8 84 1.1 N 9 11 5 6 1021.6 1021.7 0.0
29/07:30am 8.9 5.9 6.0 82 1.3 NNW 11 13 6 7 1021.4 1021.5 0.0
29/07:00am 9.3 6.8 6.4 82 1.3 NNW 9 11 5 6 1021.6 1021.7 0.0
29/06:30am 9.6 7.2 6.9 83 1.3 NNW 9 13 5 7 1021.3 1021.4 0.0
29/06:00am 9.1 7.0 6.7 85 1.1 NNW 7 11 4 6 1021.1 1021.2 0.0
29/05:30am 8.0 5.8 5.5 84 1.1 NW 6 7 3 4 1021.1 1021.2 0.0
29/05:00am 8.5 5.8 5.8 83 1.2 NNW 9 11 5 6 1021.2 1021.3 0.0
29/04:30am 9.0 6.1 6.3 83 1.2 NNW 11 13 6 7 1021.2 1021.3 0.0
29/04:00am 9.0 6.4 6.3 83 1.2 N 9 13 5 7 1021.3 1021.4 0.0
29/03:30am 9.3 7.3 6.2 81 1.4 N 6 7 3 4 1021.5 1021.6 0.0
29/03:00am 9.6 7.4 6.3 80 1.5 N 7 13 4 7 1021.8 1021.9 0.0
29/02:30am 9.9 7.0 6.4 79 1.6 N 11 13 6 7 1021.9 1022.0 0.0
29/02:00am 9.9 6.6 6.3 78 1.7 N 13 15 7 8 1022.1 1022.2 0.0
29/01:30am 10.2 6.5 6.4 77 1.8 NNW 15 19 8 10 1022.1 1022.2 0.0
29/01:00am 10.3 6.6 6.3 76 1.9 NNW 15 19 8 10 1022.2 1022.3 0.0
29/12:30am 10.1 6.8 6.3 77 1.8 NNW 13 19 7 10 1022.4 1022.5 0.0
29/12:00am 10.1 6.4 6.4 78 1.7 N 15 19 8 10 1022.5 1022.6 0.0
 
Date/Time
EST
Temp
°C
App
Temp
°C
Dew
Point
°C
Rel
Hum
%
Delta-T
°C
Wind Press
QNH
hPa
Press
MSL
hPa
Rain since
9am
mm
Dir  Spd
km/h
Gust
km/h
Spd
kts
Gust
kts
28/11:30pm 10.1 6.5 6.6 79 1.6 N 15 19 8 10 1022.7 1022.8 0.0
28/11:00pm 9.8 6.6 6.9 82 1.4 N 13 15 7 8 1022.7 1022.8 0.0
28/10:30pm 9.4 6.2 6.7 83 1.3 N 13 17 7 9 1022.7 1022.8 0.0
28/10:00pm 9.1 6.2 6.7 85 1.1 N 11 13 6 7 1023.0 1023.1 0.0
28/09:30pm 8.4 5.4 5.9 84 1.1 N 11 13 6 7 1022.9 1023.0 0.0
28/09:00pm 8.7 5.7 5.8 82 1.3 N 11 13 6 7 1022.8 1022.9 0.0
28/08:30pm 9.5 6.2 6.2 80 1.5 N 13 15 7 8 1022.7 1022.8 0.0
28/08:00pm 10.2 6.9 6.4 77 1.8 N 13 15 7 8 1022.7 1022.8 0.0
28/07:30pm 11.2 8.0 6.9 75 2.0 N 13 17 7 9 1022.6 1022.7 0.0
28/07:00pm 11.6 8.5 7.3 75 2.1 N 13 15 7 8 1022.5 1022.6 0.0
28/06:30pm 11.8 8.3 7.3 74 2.2 N 15 17 8 9 1022.2 1022.3 0.0
28/06:00pm 12.1 8.7 7.6 74 2.2 N 15 19 8 10 1022.0 1022.1 0.0
28/05:30pm 11.8 9.0 7.1 73 2.3 N 11 13 6 7 1021.9 1022.0 0.0
28/05:00pm 12.1 8.9 7.0 71 2.4 N 13 15 7 8 1021.9 1022.0 0.0
28/04:30pm 13.0 10.3 7.5 69 2.7 N 11 15 6 8 1021.8 1021.9 0.0
28/04:00pm 13.2 10.1 7.4 68 2.8 N 13 17 7 9 1021.8 1021.9 0.0
28/03:30pm 13.4 9.6 7.4 67 2.9 N 17 20 9 11 1021.8 1021.9 0.0
28/03:00pm 13.7 10.2 7.2 65 3.2 N 15 20 8 11 1021.7 1021.8 0.0
28/02:30pm 13.8 9.9 7.3 65 3.2 N 17 20 9 11 1021.7 1021.8 0.0
28/02:00pm 13.7 9.8 7.0 64 3.2 N 17 24 9 13 1021.9 1022.0 0.0
28/01:30pm 13.5 9.6 7.1 65 3.1 N 17 22 9 12 1022.2 1022.3 0.0
28/01:00pm 14.1 9.8 7.2 63 3.4 N 19 24 10 13 1022.4 1022.5 0.0
28/12:30pm 12.6 7.9 6.2 65 3.0 N 20 26 11 14 1022.7 1022.8 0.0
28/12:00pm 12.5 8.1 6.5 67 2.8 N 19 24 10 13 1022.9 1023.0 0.0
28/11:30am 12.1 7.0 5.9 66 2.9 N 22 28 12 15 1023.3 1023.4 0.0
28/11:00am 11.4 6.6 5.7 68 2.6 N 20 28 11 15 1023.6 1023.7 0.0
28/10:30am 11.2 6.6 5.5 68 2.6 N 19 26 10 14 1023.8 1023.9 0.0
28/10:00am 10.9 6.6 5.4 69 2.5 N 17 24 9 13 1023.7 1023.8 0.0
28/09:30am 10.7 5.9 5.5 70 2.4 N 20 28 11 15 1023.5 1023.6 0.0
28/09:00am 10.0 7.3 5.4 73 2.1 N 9 15 5 8 1023.7 1023.8 0.0
28/08:30am 9.4 5.8 4.8 73 2.1 N 13 19 7 10 1023.4 1023.5 0.0
28/08:00am 9.0 4.6 4.8 75 1.9 NNE 17 20 9 11 1023.0 1023.1 0.0
28/07:30am 8.8 4.7 4.6 75 1.9 NNE 15 17 8 9 1022.8 1022.9 0.0
28/07:00am 9.3 5.2 4.5 72 2.1 N 15 19 8 10 1022.9 1023.0 0.0
28/06:30am 9.4 4.4 4.6 72 2.1 N 20 24 11 13 1022.8 1022.9 0.0
28/06:00am 9.2 4.8 4.6 73 2.0 N 17 20 9 11 1022.6 1022.7 0.0
28/05:30am 9.0 4.6 4.6 74 1.9 N 17 20 9 11 1022.6 1022.7 0.0
28/05:00am 8.8 4.7 4.4 74 1.9 N 15 20 8 11 1022.7 1022.8 0.0
28/04:30am 8.9 4.8 4.5 74 1.9 N 15 20 8 11 1022.8 1022.9 0.0
28/04:00am 8.8 4.3 4.2 73 2.0 N 17 20 9 11 1022.9 1023.0 0.0
28/03:30am 9.0 4.5 4.2 72 2.1 N 17 24 9 13 1023.2 1023.3 0.0
28/03:00am 8.8 4.3 4.2 73 2.0 N 17 20 9 11 1023.3 1023.4 0.0
28/02:30am 8.7 4.2 4.3 74 1.9 N 17 20 9 11 1023.0 1023.1 0.0
28/02:00am 9.1 4.2 4.3 72 2.1 N 19 28 10 15 1023.0 1023.1 0.0
28/01:30am 9.2 4.7 4.4 72 2.1 N 17 22 9 12 1023.2 1023.3 0.0
28/01:00am 9.0 4.9 4.4 73 2.0 N 15 19 8 10 1023.3 1023.4 0.0
28/12:30am 8.9 4.4 4.3 73 2.0 N 17 20 9 11 1023.3 1023.4 0.0
28/12:00am 8.7 4.2 4.1 73 2.0 N 17 24 9 13 1023.3 1023.4 0.0
 
Date/Time
EST
Temp
°C
App
Temp
°C
Dew
Point
°C
Rel
Hum
%
Delta-T
°C
Wind Press
QNH
hPa
Press
MSL
hPa
Rain since
9am
mm
Dir  Spd
km/h
Gust
km/h
Spd
kts
Gust
kts
27/11:30pm 8.9 4.8 4.3 73 2.0 N 15 19 8 10 1023.5 1023.6 0.0
27/11:00pm 9.3 5.3 4.9 74 2.0 N 15 19 8 10 1023.6 1023.7 0.0
27/10:30pm 9.5 5.2 5.1 74 2.0 N 17 20 9 11 1023.7 1023.8 0.0
27/10:00pm 9.3 5.7 4.9 74 2.0 N 13 17 7 9 1023.5 1023.6 0.0
27/09:30pm 9.6 6.3 4.6 71 2.2 N 11 13 6 7 1023.6 1023.7 0.0
27/09:00pm 10.1 6.5 4.9 70 2.3 N 13 20 7 11 1023.6 1023.7 0.0
27/08:30pm 10.1 6.9 4.9 70 2.3 N 11 15 6 8 1023.8 1023.9 0.0
27/08:00pm 10.0 6.4 4.8 70 2.3 N 13 17 7 9 1023.8 1023.9 0.0
27/07:30pm 10.1 6.1 4.9 70 2.3 N 15 20 8 11 1023.7 1023.8 0.0
27/07:00pm 10.3 6.3 5.1 70 2.3 N 15 19 8 10 1023.6 1023.7 0.0
27/06:30pm 10.3 6.3 5.1 70 2.4 N 15 19 8 10 1023.6 1023.7 0.0
27/06:00pm 10.2 6.7 5.4 72 2.2 N 13 17 7 9 1023.6 1023.7 0.0
27/05:30pm 10.3 6.0 5.1 70 2.4 N 17 20 9 11 1023.7 1023.8 0.0
27/05:00pm 10.6 6.3 5.4 70 2.4 N 17 20 9 11 1023.6 1023.7 0.0
27/04:30pm 10.7 7.3 5.7 71 2.3 N 13 19 7 10 1023.7 1023.8 0.0
27/04:00pm 10.8 6.6 5.6 70 2.4 N 17 22 9 12 1023.8 1023.9 0.0
27/03:30pm 11.0 6.4 5.5 69 2.5 N 19 28 10 15 1023.8 1023.9 0.0
27/03:00pm 11.2 7.0 5.7 69 2.5 N 17 20 9 11 1023.8 1023.9 0.0
27/02:30pm 11.3 7.1 5.8 69 2.6 N 17 20 9 11 1023.8 1023.9 0.0
27/02:00pm 11.4 7.2 5.7 68 2.6 N 17 20 9 11 1024.0 1024.1 0.0
27/01:30pm 11.4 7.3 6.1 70 2.5 N 17 20 9 11 1024.1 1024.2 0.0
27/01:00pm 11.0 7.2 5.7 70 2.4 N 15 20 8 11 1024.3 1024.4 0.0
27/12:30pm 10.7 6.9 5.7 71 2.3 N 15 19 8 10 1024.7 1024.8 0.0
27/12:00pm 10.6 6.4 5.6 71 2.3 N 17 22 9 12 1024.9 1025.0 0.0
27/11:30am 10.8 6.7 6.0 72 2.2 N 17 20 9 11 1025.3 1025.4 0.0
27/11:00am 10.7 7.0 6.1 73 2.1 NNE 15 17 8 9 1025.6 1025.7 0.0
27/10:30am 10.3 6.5 5.7 73 2.1 NNE 15 19 8 10 1025.8 1025.9 0.0
27/10:00am 10.0 6.2 5.8 75 1.9 NNE 15 20 8 11 1025.6 1025.7 0.0
27/09:30am 9.4 6.5 6.3 81 1.4 NNE 11 13 6 7 1025.9 1026.0 0.0
27/09:00am 8.8 5.9 6.6 86 1.0 N 11 15 6 8 1025.7 1025.8 0.2
27/08:30am 8.0 6.0 6.3 89 0.8 N 6 9 3 5 1025.8 1025.9 0.2
27/08:00am 7.5 5.3 6.0 90 0.7 NNW 7 9 4 5 1025.8 1025.9 0.2
27/07:30am 7.7 5.2 6.5 92 0.5 NNW 9 11 5 6 1025.6 1025.7 0.2
27/07:00am 8.2 6.2 7.3 94 0.4 NNW 7 11 4 6 1025.5 1025.6 0.2
27/06:30am 7.9 5.9 7.1 95 0.4 NNE 7 9 4 5 1025.2 1025.3 0.2
27/06:00am 7.9 6.5 7.1 95 0.4 N 4 9 2 5 1025.3 1025.4 0.2
27/05:30am 8.0 6.0 7.2 95 0.4 N 7 9 4 5 1025.4 1025.5 0.2
27/05:00am 8.1 5.8 7.5 96 0.3 NNE 9 13 5 7 1025.4 1025.5 0.2
27/04:30am 8.4 6.2 7.8 96 0.3 NNE 9 11 5 6 1025.4 1025.5 0.2
27/04:00am 8.4 6.8 7.8 96 0.3 N 6 7 3 4 1025.7 1025.8 0.2
27/03:30am 8.5 6.9 7.9 96 0.3 N 6 7 3 4 1025.8 1025.9 0.2
27/03:00am 8.2 6.3 7.6 96 0.3 N 7 9 4 5 1025.8 1025.9 0.2
27/02:30am 7.9 5.9 7.3 96 0.3 N 7 9 4 5 1026.0 1026.1 0.2
27/02:00am 8.1 6.2 7.5 96 0.3 N 7 9 4 5 1025.8 1025.9 0.2
27/01:30am 7.1 4.6 6.4 95 0.3 N 9 13 5 7 1025.6 1025.7 0.2
27/01:00am 5.2 3.9 4.2 93 0.4 CALM 0 6 0 3 1025.4 1025.5 0.2
27/12:30am 7.7 5.8 6.8 94 0.4 NNW 6 7 3 4 1025.5 1025.6 0.2
27/12:00am 7.4 5.2 6.3 93 0.5 N 7 7 4 4 1025.6 1025.7 0.2
 
Date/Time
EST
Temp
°C
App
Temp
°C
Dew
Point
°C
Rel
Hum
%
Delta-T
°C
Wind Press
QNH
hPa
Press
MSL
hPa
Rain since
9am
mm
Dir  Spd
km/h
Gust
km/h
Spd
kts
Gust
kts
26/11:30pm 7.3 5.6 6.1 92 0.5 N 4 6 2 3 1025.8 1025.9 0.2
26/11:00pm 7.9 7.1 6.4 90 0.7 CALM 0 0 0 0 1025.9 1026.0 0.2
26/10:30pm 8.8 6.8 7.3 90 0.7 N 7 9 4 5 1026.1 1026.2 0.2
26/10:00pm 9.4 8.1 7.7 89 0.8 N 4 6 2 3 1026.1 1026.2 0.2
26/09:30pm 9.7 9.2 7.8 88 0.9 CALM 0 2 0 1 1026.1 1026.2 0.2
26/09:00pm 10.0 8.4 7.9 87 1.0 N 6 7 3 4 1026.1 1026.2 0.2
26/08:30pm 10.0 9.6 8.1 88 0.9 CALM 0 0 0 0 1026.2 1026.3 0.2
26/08:00pm 9.9 9.4 7.7 86 1.0 CALM 0 0 0 0 1026.0 1026.1 0.2
26/07:30pm 10.2 9.6 7.6 84 1.2 CALM 0 0 0 0 1025.8 1025.9 0.2
26/07:00pm 10.2 9.6 7.3 82 1.4 CALM 0 0 0 0 1025.7 1025.8 0.2
26/06:30pm 10.8 10.2 7.3 79 1.7 CALM 0 0 0 0 1025.4 1025.5 0.2
26/06:00pm 11.1 10.5 7.4 78 1.8 CALM 0 0 0 0 1025.2 1025.3 0.2
26/05:30pm 11.3 9.6 7.6 78 1.8 W 6 7 3 4 1024.8 1024.9 0.2
26/05:00pm 11.4 9.5 7.5 77 1.9 WSW 7 11 4 6 1024.6 1024.7 0.2
26/04:30pm 11.5 9.1 7.2 75 2.1 SW 9 13 5 7 1024.3 1024.4 0.2
26/04:00pm 12.3 10.1 7.8 74 2.2 SW 9 13 5 7 1024.3 1024.4 0.2

Latest Capital City Observations: Canberra | Sydney | Melbourne | Brisbane | Adelaide | Perth | Hobart | Darwin

Other Formats:

Comma delimited format used in spreadsheet applications
http://www.bom.gov.au/fwo/IDV60901/IDV60901.94870.axf

JavaScript Object Notation format (JSON) in row-major order
http://www.bom.gov.au/fwo/IDV60901/IDV60901.94870.json